sensor_id;sensor_type;location;lat;lon;timestamp;temperature;humidity
4651;DHT22;2338;49.602;8.722;2022-08-21T00:01:31;17.30;87.60
4651;DHT22;2338;49.602;8.722;2022-08-21T00:04:18;17.30;87.60
4651;DHT22;2338;49.602;8.722;2022-08-21T00:07:04;17.20;87.50
4651;DHT22;2338;49.602;8.722;2022-08-21T00:09:50;17.10;88.40
4651;DHT22;2338;49.602;8.722;2022-08-21T00:12:35;17.00;89.50
4651;DHT22;2338;49.602;8.722;2022-08-21T00:15:24;16.90;90.10
4651;DHT22;2338;49.602;8.722;2022-08-21T00:18:11;17.00;90.00
4651;DHT22;2338;49.602;8.722;2022-08-21T00:20:58;17.00;90.10
4651;DHT22;2338;49.602;8.722;2022-08-21T00:23:44;17.00;90.10
4651;DHT22;2338;49.602;8.722;2022-08-21T00:26:29;16.90;90.40
4651;DHT22;2338;49.602;8.722;2022-08-21T00:29:15;16.90;90.50
4651;DHT22;2338;49.602;8.722;2022-08-21T00:32:01;16.90;90.10
4651;DHT22;2338;49.602;8.722;2022-08-21T00:34:47;16.80;90.60
4651;DHT22;2338;49.602;8.722;2022-08-21T00:37:34;16.80;90.60
4651;DHT22;2338;49.602;8.722;2022-08-21T00:40:23;16.80;90.60
4651;DHT22;2338;49.602;8.722;2022-08-21T00:43:11;16.70;90.90
4651;DHT22;2338;49.602;8.722;2022-08-21T00:45:58;16.90;91.00
4651;DHT22;2338;49.602;8.722;2022-08-21T00:48:44;16.90;90.50
4651;DHT22;2338;49.602;8.722;2022-08-21T00:51:35;17.10;90.20
4651;DHT22;2338;49.602;8.722;2022-08-21T00:54:25;17.00;90.10
4651;DHT22;2338;49.602;8.722;2022-08-21T00:57:15;16.90;90.20
4651;DHT22;2338;49.602;8.722;2022-08-21T01:00:06;16.70;90.60
4651;DHT22;2338;49.602;8.722;2022-08-21T01:02:52;16.60;91.10
4651;DHT22;2338;49.602;8.722;2022-08-21T01:05:38;16.50;91.40
4651;DHT22;2338;49.602;8.722;2022-08-21T01:08:25;16.50;91.80
4651;DHT22;2338;49.602;8.722;2022-08-21T01:11:13;16.50;91.90
4651;DHT22;2338;49.602;8.722;2022-08-21T01:13:59;16.50;91.90
4651;DHT22;2338;49.602;8.722;2022-08-21T01:16:47;16.50;92.00
4651;DHT22;2338;49.602;8.722;2022-08-21T01:19:33;16.60;92.00
4651;DHT22;2338;49.602;8.722;2022-08-21T01:22:20;16.60;91.80
4651;DHT22;2338;49.602;8.722;2022-08-21T01:25:08;16.50;91.80
4651;DHT22;2338;49.602;8.722;2022-08-21T01:27:54;16.40;92.00
4651;DHT22;2338;49.602;8.722;2022-08-21T01:30:40;16.40;92.10
4651;DHT22;2338;49.602;8.722;2022-08-21T01:33:27;16.40;92.10
4651;DHT22;2338;49.602;8.722;2022-08-21T01:36:13;16.60;92.30
4651;DHT22;2338;49.602;8.722;2022-08-21T01:39:00;16.70;92.20
4651;DHT22;2338;49.602;8.722;2022-08-21T01:41:46;16.80;92.00
4651;DHT22;2338;49.602;8.722;2022-08-21T01:44:32;16.70;91.80
4651;DHT22;2338;49.602;8.722;2022-08-21T01:47:17;16.50;91.60
4651;DHT22;2338;49.602;8.722;2022-08-21T01:50:05;16.40;92.10
4651;DHT22;2338;49.602;8.722;2022-08-21T01:52:51;16.30;92.40
4651;DHT22;2338;49.602;8.722;2022-08-21T01:55:38;16.00;93.80
4651;DHT22;2338;49.602;8.722;2022-08-21T01:58:24;15.90;95.40
4651;DHT22;2338;49.602;8.722;2022-08-21T02:01:10;15.90;95.70
4651;DHT22;2338;49.602;8.722;2022-08-21T02:03:56;16.00;95.70
4651;DHT22;2338;49.602;8.722;2022-08-21T02:06:42;16.10;95.20
4651;DHT22;2338;49.602;8.722;2022-08-21T02:09:28;16.20;94.80
4651;DHT22;2338;49.602;8.722;2022-08-21T02:12:15;16.40;95.20
4651;DHT22;2338;49.602;8.722;2022-08-21T02:15:01;16.50;94.70
4651;DHT22;2338;49.602;8.722;2022-08-21T02:17:50;16.40;94.40
4651;DHT22;2338;49.602;8.722;2022-08-21T02:20:38;16.30;93.90
4651;DHT22;2338;49.602;8.722;2022-08-21T02:23:24;16.10;94.20
4651;DHT22;2338;49.602;8.722;2022-08-21T02:26:11;15.90;94.90
4651;DHT22;2338;49.602;8.722;2022-08-21T02:28:58;15.90;95.10
4651;DHT22;2338;49.602;8.722;2022-08-21T02:31:44;15.90;95.10
4651;DHT22;2338;49.602;8.722;2022-08-21T02:34:29;16.00;95.00
4651;DHT22;2338;49.602;8.722;2022-08-21T02:37:15;16.10;94.70
4651;DHT22;2338;49.602;8.722;2022-08-21T02:40:00;15.90;94.60
4651;DHT22;2338;49.602;8.722;2022-08-21T02:42:46;15.80;95.00
4651;DHT22;2338;49.602;8.722;2022-08-21T02:45:34;15.70;95.20
4651;DHT22;2338;49.602;8.722;2022-08-21T02:48:22;15.70;95.60
4651;DHT22;2338;49.602;8.722;2022-08-21T02:51:10;15.70;95.50
4651;DHT22;2338;49.602;8.722;2022-08-21T02:53:56;15.80;95.50
4651;DHT22;2338;49.602;8.722;2022-08-21T02:56:42;15.70;95.70
4651;DHT22;2338;49.602;8.722;2022-08-21T02:59:27;15.70;95.50
4651;DHT22;2338;49.602;8.722;2022-08-21T03:02:14;15.80;95.40
4651;DHT22;2338;49.602;8.722;2022-08-21T03:05:00;15.90;95.40
4651;DHT22;2338;49.602;8.722;2022-08-21T03:07:46;15.90;95.40
4651;DHT22;2338;49.602;8.722;2022-08-21T03:10:32;16.10;95.30
4651;DHT22;2338;49.602;8.722;2022-08-21T03:13:19;16.00;95.00
4651;DHT22;2338;49.602;8.722;2022-08-21T03:16:06;15.90;94.90
4651;DHT22;2338;49.602;8.722;2022-08-21T03:18:53;15.80;94.90
4651;DHT22;2338;49.602;8.722;2022-08-21T03:21:39;15.70;95.40
4651;DHT22;2338;49.602;8.722;2022-08-21T03:24:24;15.70;95.40
4651;DHT22;2338;49.602;8.722;2022-08-21T03:27:10;15.80;95.30
4651;DHT22;2338;49.602;8.722;2022-08-21T03:29:57;15.90;95.30
4651;DHT22;2338;49.602;8.722;2022-08-21T03:32:43;15.80;94.90
4651;DHT22;2338;49.602;8.722;2022-08-21T03:35:30;15.60;94.90
4651;DHT22;2338;49.602;8.722;2022-08-21T03:38:15;15.50;95.40
4651;DHT22;2338;49.602;8.722;2022-08-21T03:41:02;15.30;96.70
4651;DHT22;2338;49.602;8.722;2022-08-21T03:43:48;15.10;97.70
4651;DHT22;2338;49.602;8.722;2022-08-21T03:46:33;15.10;98.10
4651;DHT22;2338;49.602;8.722;2022-08-21T03:49:20;15.10;98.50
4651;DHT22;2338;49.602;8.722;2022-08-21T03:52:07;15.20;98.40
4651;DHT22;2338;49.602;8.722;2022-08-21T03:54:53;15.40;98.30
4651;DHT22;2338;49.602;8.722;2022-08-21T03:57:38;15.50;98.20
4651;DHT22;2338;49.602;8.722;2022-08-21T04:00:24;15.70;97.70
4651;DHT22;2338;49.602;8.722;2022-08-21T04:03:10;15.70;97.20
4651;DHT22;2338;49.602;8.722;2022-08-21T04:05:56;15.60;96.60
4651;DHT22;2338;49.602;8.722;2022-08-21T04:08:43;15.50;96.60
4651;DHT22;2338;49.602;8.722;2022-08-21T04:11:29;15.30;97.00
4651;DHT22;2338;49.602;8.722;2022-08-21T04:14:15;15.10;97.60
4651;DHT22;2338;49.602;8.722;2022-08-21T04:17:00;15.10;97.70
4651;DHT22;2338;49.602;8.722;2022-08-21T04:19:46;15.20;97.30
4651;DHT22;2338;49.602;8.722;2022-08-21T04:22:32;15.30;97.20
4651;DHT22;2338;49.602;8.722;2022-08-21T04:25:21;15.20;97.20
4651;DHT22;2338;49.602;8.722;2022-08-21T04:28:07;15.10;97.10
4651;DHT22;2338;49.602;8.722;2022-08-21T04:30:53;15.00;98.30
4651;DHT22;2338;49.602;8.722;2022-08-21T04:33:39;15.00;98.40
4651;DHT22;2338;49.602;8.722;2022-08-21T04:36:24;15.00;98.40
4651;DHT22;2338;49.602;8.722;2022-08-21T04:39:10;15.00;98.20
4651;DHT22;2338;49.602;8.722;2022-08-21T04:41:57;15.00;98.30
4651;DHT22;2338;49.602;8.722;2022-08-21T04:44:43;15.10;98.10
4651;DHT22;2338;49.602;8.722;2022-08-21T04:47:28;15.20;98.00
4651;DHT22;2338;49.602;8.722;2022-08-21T04:50:13;15.30;98.10
4651;DHT22;2338;49.602;8.722;2022-08-21T04:53:00;15.40;98.00
4651;DHT22;2338;49.602;8.722;2022-08-21T04:55:46;15.40;97.70
4651;DHT22;2338;49.602;8.722;2022-08-21T04:58:34;15.40;97.40
4651;DHT22;2338;49.602;8.722;2022-08-21T05:01:22;15.40;97.20
4651;DHT22;2338;49.602;8.722;2022-08-21T05:04:11;15.40;97.40
4651;DHT22;2338;49.602;8.722;2022-08-21T05:06:59;15.40;97.60
4651;DHT22;2338;49.602;8.722;2022-08-21T05:09:47;15.50;97.40
4651;DHT22;2338;49.602;8.722;2022-08-21T05:12:34;15.50;97.60
4651;DHT22;2338;49.602;8.722;2022-08-21T05:15:21;15.50;97.60
4651;DHT22;2338;49.602;8.722;2022-08-21T05:18:07;15.60;97.80
4651;DHT22;2338;49.602;8.722;2022-08-21T05:20:53;15.70;97.70
4651;DHT22;2338;49.602;8.722;2022-08-21T05:23:39;15.70;97.70
4651;DHT22;2338;49.602;8.722;2022-08-21T05:26:24;15.60;98.10
4651;DHT22;2338;49.602;8.722;2022-08-21T05:29:10;15.70;98.70
4651;DHT22;2338;49.602;8.722;2022-08-21T05:31:57;15.80;98.50
4651;DHT22;2338;49.602;8.722;2022-08-21T05:34:43;15.90;98.50
4651;DHT22;2338;49.602;8.722;2022-08-21T05:37:29;16.00;98.80
4651;DHT22;2338;49.602;8.722;2022-08-21T05:40:15;16.10;98.90
4651;DHT22;2338;49.602;8.722;2022-08-21T05:43:02;16.20;98.90
4651;DHT22;2338;49.602;8.722;2022-08-21T05:45:48;16.40;98.50
4651;DHT22;2338;49.602;8.722;2022-08-21T05:48:36;16.40;98.50
4651;DHT22;2338;49.602;8.722;2022-08-21T05:51:21;16.50;98.40
4651;DHT22;2338;49.602;8.722;2022-08-21T05:54:07;16.50;98.30
4651;DHT22;2338;49.602;8.722;2022-08-21T05:56:53;16.60;98.60
4651;DHT22;2338;49.602;8.722;2022-08-21T05:59:39;16.70;98.30
4651;DHT22;2338;49.602;8.722;2022-08-21T06:02:25;16.80;98.00
4651;DHT22;2338;49.602;8.722;2022-08-21T06:05:12;16.90;97.80
4651;DHT22;2338;49.602;8.722;2022-08-21T06:07:58;17.00;98.00
4651;DHT22;2338;49.602;8.722;2022-08-21T06:10:44;17.10;97.90
4651;DHT22;2338;49.602;8.722;2022-08-21T06:13:30;17.20;97.90
4651;DHT22;2338;49.602;8.722;2022-08-21T06:16:16;17.30;97.70
4651;DHT22;2338;49.602;8.722;2022-08-21T06:19:02;17.40;97.90
4651;DHT22;2338;49.602;8.722;2022-08-21T06:21:49;17.40;98.00
4651;DHT22;2338;49.602;8.722;2022-08-21T06:24:35;17.50;97.80
4651;DHT22;2338;49.602;8.722;2022-08-21T06:27:21;17.60;98.10
4651;DHT22;2338;49.602;8.722;2022-08-21T06:30:08;17.70;97.60
4651;DHT22;2338;49.602;8.722;2022-08-21T06:32:54;17.80;97.30
4651;DHT22;2338;49.602;8.722;2022-08-21T06:35:39;17.90;97.60
4651;DHT22;2338;49.602;8.722;2022-08-21T06:38:26;18.00;97.60
4651;DHT22;2338;49.602;8.722;2022-08-21T06:41:12;18.00;97.50
4651;DHT22;2338;49.602;8.722;2022-08-21T06:43:58;18.20;97.30
4651;DHT22;2338;49.602;8.722;2022-08-21T06:46:44;18.30;96.90
4651;DHT22;2338;49.602;8.722;2022-08-21T06:49:30;18.40;96.60
4651;DHT22;2338;49.602;8.722;2022-08-21T06:52:16;18.50;96.00
4651;DHT22;2338;49.602;8.722;2022-08-21T06:55:05;18.60;96.00
4651;DHT22;2338;49.602;8.722;2022-08-21T06:57:51;18.70;95.60
4651;DHT22;2338;49.602;8.722;2022-08-21T07:00:39;18.80;95.50
4651;DHT22;2338;49.602;8.722;2022-08-21T07:03:28;18.80;96.00
4651;DHT22;2338;49.602;8.722;2022-08-21T07:06:14;18.90;96.00
4651;DHT22;2338;49.602;8.722;2022-08-21T07:09:00;19.00;95.70
4651;DHT22;2338;49.602;8.722;2022-08-21T07:11:50;19.10;96.10
4651;DHT22;2338;49.602;8.722;2022-08-21T07:14:37;19.30;95.50
4651;DHT22;2338;49.602;8.722;2022-08-21T07:17:22;19.40;95.00
4651;DHT22;2338;49.602;8.722;2022-08-21T07:20:08;19.50;94.80
4651;DHT22;2338;49.602;8.722;2022-08-21T07:22:54;19.60;95.00
4651;DHT22;2338;49.602;8.722;2022-08-21T07:25:41;19.70;94.00
4651;DHT22;2338;49.602;8.722;2022-08-21T07:28:28;19.80;93.60
4651;DHT22;2338;49.602;8.722;2022-08-21T07:31:16;20.00;93.40
4651;DHT22;2338;49.602;8.722;2022-08-21T07:34:02;20.10;93.40
4651;DHT22;2338;49.602;8.722;2022-08-21T07:36:48;20.30;92.30
4651;DHT22;2338;49.602;8.722;2022-08-21T07:39:34;20.40;89.10
4651;DHT22;2338;49.602;8.722;2022-08-21T07:42:20;20.50;89.20
4651;DHT22;2338;49.602;8.722;2022-08-21T07:45:08;20.70;89.80
4651;DHT22;2338;49.602;8.722;2022-08-21T07:47:54;20.90;86.40
4651;DHT22;2338;49.602;8.722;2022-08-21T07:50:40;21.00;86.20
4651;DHT22;2338;49.602;8.722;2022-08-21T07:53:26;21.10;84.80
4651;DHT22;2338;49.602;8.722;2022-08-21T07:56:12;21.20;79.80
4651;DHT22;2338;49.602;8.722;2022-08-21T07:58:57;21.20;77.70
4651;DHT22;2338;49.602;8.722;2022-08-21T08:01:44;21.40;79.30
4651;DHT22;2338;49.602;8.722;2022-08-21T08:04:31;21.50;75.80
4651;DHT22;2338;49.602;8.722;2022-08-21T08:07:17;21.60;74.20
4651;DHT22;2338;49.602;8.722;2022-08-21T08:10:05;21.70;74.10
4651;DHT22;2338;49.602;8.722;2022-08-21T08:12:52;21.80;73.60
4651;DHT22;2338;49.602;8.722;2022-08-21T08:15:38;21.90;70.20
4651;DHT22;2338;49.602;8.722;2022-08-21T08:18:25;21.90;68.70
4651;DHT22;2338;49.602;8.722;2022-08-21T08:21:12;22.00;68.70
4651;DHT22;2338;49.602;8.722;2022-08-21T08:23:58;22.10;69.60
4651;DHT22;2338;49.602;8.722;2022-08-21T08:26:44;22.30;70.50
4651;DHT22;2338;49.602;8.722;2022-08-21T08:29:30;22.40;68.80
4651;DHT22;2338;49.602;8.722;2022-08-21T08:32:16;22.60;68.00
4651;DHT22;2338;49.602;8.722;2022-08-21T08:35:04;22.60;65.80
4651;DHT22;2338;49.602;8.722;2022-08-21T08:37:50;22.70;64.70
4651;DHT22;2338;49.602;8.722;2022-08-21T08:40:41;22.70;63.50
4651;DHT22;2338;49.602;8.722;2022-08-21T08:43:30;22.80;64.20
4651;DHT22;2338;49.602;8.722;2022-08-21T08:46:20;22.80;61.70
4651;DHT22;2338;49.602;8.722;2022-08-21T08:49:15;22.90;63.50
4651;DHT22;2338;49.602;8.722;2022-08-21T08:52:07;23.00;64.20
4651;DHT22;2338;49.602;8.722;2022-08-21T08:55:02;23.10;63.30
4651;DHT22;2338;49.602;8.722;2022-08-21T08:57:49;23.20;62.20
4651;DHT22;2338;49.602;8.722;2022-08-21T09:00:38;23.30;62.10
4651;DHT22;2338;49.602;8.722;2022-08-21T09:03:25;23.30;61.90
4651;DHT22;2338;49.602;8.722;2022-08-21T09:06:19;23.40;58.60
4651;DHT22;2338;49.602;8.722;2022-08-21T09:09:25;23.50;59.50
4651;DHT22;2338;49.602;8.722;2022-08-21T09:12:29;23.70;60.20
4651;DHT22;2338;49.602;8.722;2022-08-21T09:15:23;23.80;57.40
4651;DHT22;2338;49.602;8.722;2022-08-21T09:18:24;23.80;53.10
4651;DHT22;2338;49.602;8.722;2022-08-21T09:21:18;23.70;48.30
4651;DHT22;2338;49.602;8.722;2022-08-21T09:24:32;23.80;47.30
4651;DHT22;2338;49.602;8.722;2022-08-21T09:27:20;23.80;45.00
4651;DHT22;2338;49.602;8.722;2022-08-21T09:30:08;23.90;47.30
4651;DHT22;2338;49.602;8.722;2022-08-21T09:32:56;24.00;43.80
4651;DHT22;2338;49.602;8.722;2022-08-21T09:35:51;24.20;41.90
4651;DHT22;2338;49.602;8.722;2022-08-21T09:38:37;24.30;43.10
4651;DHT22;2338;49.602;8.722;2022-08-21T09:41:29;24.50;43.00
4651;DHT22;2338;49.602;8.722;2022-08-21T09:44:25;24.60;42.20
4651;DHT22;2338;49.602;8.722;2022-08-21T09:47:12;24.50;39.70
4651;DHT22;2338;49.602;8.722;2022-08-21T09:50:08;24.50;39.10
4651;DHT22;2338;49.602;8.722;2022-08-21T09:52:56;24.40;37.70
4651;DHT22;2338;49.602;8.722;2022-08-21T09:55:49;24.50;39.10
4651;DHT22;2338;49.602;8.722;2022-08-21T09:58:54;24.50;37.30
4651;DHT22;2338;49.602;8.722;2022-08-21T10:01:43;24.50;37.60
4651;DHT22;2338;49.602;8.722;2022-08-21T10:04:32;24.50;36.40
4651;DHT22;2338;49.602;8.722;2022-08-21T10:07:21;24.50;37.40
4651;DHT22;2338;49.602;8.722;2022-08-21T10:10:13;24.60;38.60
4651;DHT22;2338;49.602;8.722;2022-08-21T10:13:05;24.80;37.60
4651;DHT22;2338;49.602;8.722;2022-08-21T10:16:05;25.00;36.70
4651;DHT22;2338;49.602;8.722;2022-08-21T10:19:05;25.10;34.30
4651;DHT22;2338;49.602;8.722;2022-08-21T10:22:02;25.30;34.00
4651;DHT22;2338;49.602;8.722;2022-08-21T10:24:58;25.30;30.80
4651;DHT22;2338;49.602;8.722;2022-08-21T10:27:59;25.30;32.40
4651;DHT22;2338;49.602;8.722;2022-08-21T10:30:49;25.30;32.20
4651;DHT22;2338;49.602;8.722;2022-08-21T10:33:44;25.30;33.60
4651;DHT22;2338;49.602;8.722;2022-08-21T10:36:34;25.40;31.50
4651;DHT22;2338;49.602;8.722;2022-08-21T10:39:29;25.40;30.90
4651;DHT22;2338;49.602;8.722;2022-08-21T10:42:27;25.50;31.50
4651;DHT22;2338;49.602;8.722;2022-08-21T10:45:25;25.50;31.20
4651;DHT22;2338;49.602;8.722;2022-08-21T10:48:22;25.70;31.10
4651;DHT22;2338;49.602;8.722;2022-08-21T10:51:15;25.80;31.20
4651;DHT22;2338;49.602;8.722;2022-08-21T10:54:07;25.80;31.20
4651;DHT22;2338;49.602;8.722;2022-08-21T10:57:04;25.80;31.20
4651;DHT22;2338;49.602;8.722;2022-08-21T10:59:57;25.90;30.70
4651;DHT22;2338;49.602;8.722;2022-08-21T11:02:49;26.00;30.10
4651;DHT22;2338;49.602;8.722;2022-08-21T11:05:40;26.00;31.40
4651;DHT22;2338;49.602;8.722;2022-08-21T11:08:30;26.10;31.00
4651;DHT22;2338;49.602;8.722;2022-08-21T11:11:22;26.30;30.50
4651;DHT22;2338;49.602;8.722;2022-08-21T11:14:16;26.50;29.50
4651;DHT22;2338;49.602;8.722;2022-08-21T11:17:07;26.60;29.20
4651;DHT22;2338;49.602;8.722;2022-08-21T11:20:03;26.50;28.60
4651;DHT22;2338;49.602;8.722;2022-08-21T11:22:56;26.50;29.40
4651;DHT22;2338;49.602;8.722;2022-08-21T11:25:49;26.70;28.30
4651;DHT22;2338;49.602;8.722;2022-08-21T11:28:41;26.90;28.80
4651;DHT22;2338;49.602;8.722;2022-08-21T11:31:38;27.00;27.50
4651;DHT22;2338;49.602;8.722;2022-08-21T11:34:41;27.10;27.60
4651;DHT22;2338;49.602;8.722;2022-08-21T11:37:45;27.10;27.00
4651;DHT22;2338;49.602;8.722;2022-08-21T11:40:41;27.20;27.40
4651;DHT22;2338;49.602;8.722;2022-08-21T11:43:38;27.30;26.00
4651;DHT22;2338;49.602;8.722;2022-08-21T11:46:33;27.40;25.00
4651;DHT22;2338;49.602;8.722;2022-08-21T11:49:30;27.30;25.00
4651;DHT22;2338;49.602;8.722;2022-08-21T11:52:20;27.10;24.70
4651;DHT22;2338;49.602;8.722;2022-08-21T11:55:11;26.70;24.90
4651;DHT22;2338;49.602;8.722;2022-08-21T11:58:02;26.50;25.40
4651;DHT22;2338;49.602;8.722;2022-08-21T12:00:54;26.60;25.10
4651;DHT22;2338;49.602;8.722;2022-08-21T12:03:50;26.80;25.30
4651;DHT22;2338;49.602;8.722;2022-08-21T12:06:38;26.80;25.20
4651;DHT22;2338;49.602;8.722;2022-08-21T12:09:32;27.00;24.50
4651;DHT22;2338;49.602;8.722;2022-08-21T12:12:25;27.20;25.60
4651;DHT22;2338;49.602;8.722;2022-08-21T12:15:26;27.20;23.80
4651;DHT22;2338;49.602;8.722;2022-08-21T12:18:29;27.40;24.10
4651;DHT22;2338;49.602;8.722;2022-08-21T12:21:21;27.70;23.10
4651;DHT22;2338;49.602;8.722;2022-08-21T12:24:17;27.80;21.20
4651;DHT22;2338;49.602;8.722;2022-08-21T12:27:19;28.00;21.50
4651;DHT22;2338;49.602;8.722;2022-08-21T12:30:19;28.10;22.10
4651;DHT22;2338;49.602;8.722;2022-08-21T12:33:17;28.40;20.20
4651;DHT22;2338;49.602;8.722;2022-08-21T12:36:10;28.40;19.10
4651;DHT22;2338;49.602;8.722;2022-08-21T12:38:59;28.30;19.30
4651;DHT22;2338;49.602;8.722;2022-08-21T12:41:49;28.30;19.40
4651;DHT22;2338;49.602;8.722;2022-08-21T12:44:41;28.00;19.30
4651;DHT22;2338;49.602;8.722;2022-08-21T12:47:32;28.00;20.60
4651;DHT22;2338;49.602;8.722;2022-08-21T12:50:23;28.30;20.20
4651;DHT22;2338;49.602;8.722;2022-08-21T12:53:23;28.50;19.40
4651;DHT22;2338;49.602;8.722;2022-08-21T12:56:12;28.80;19.10
4651;DHT22;2338;49.602;8.722;2022-08-21T12:59:01;29.00;18.60
4651;DHT22;2338;49.602;8.722;2022-08-21T13:01:50;29.20;17.80
4651;DHT22;2338;49.602;8.722;2022-08-21T13:04:40;29.40;17.40
4651;DHT22;2338;49.602;8.722;2022-08-21T13:07:28;29.40;17.60
4651;DHT22;2338;49.602;8.722;2022-08-21T13:10:20;29.30;16.50
4651;DHT22;2338;49.602;8.722;2022-08-21T13:13:12;29.00;16.00
4651;DHT22;2338;49.602;8.722;2022-08-21T13:16:02;29.00;16.80
4651;DHT22;2338;49.602;8.722;2022-08-21T13:18:57;29.20;17.70
4651;DHT22;2338;49.602;8.722;2022-08-21T13:21:44;29.20;17.40
4651;DHT22;2338;49.602;8.722;2022-08-21T13:24:33;29.40;18.90
4651;DHT22;2338;49.602;8.722;2022-08-21T13:27:23;29.60;18.60
4651;DHT22;2338;49.602;8.722;2022-08-21T13:30:13;29.90;18.40
4651;DHT22;2338;49.602;8.722;2022-08-21T13:33:02;30.10;17.80
4651;DHT22;2338;49.602;8.722;2022-08-21T13:35:51;30.20;17.70
4651;DHT22;2338;49.602;8.722;2022-08-21T13:38:39;30.50;17.40
4651;DHT22;2338;49.602;8.722;2022-08-21T13:41:29;30.50;17.60
4651;DHT22;2338;49.602;8.722;2022-08-21T13:44:18;30.30;16.40
4651;DHT22;2338;49.602;8.722;2022-08-21T13:47:06;29.90;16.70
4651;DHT22;2338;49.602;8.722;2022-08-21T13:49:53;29.50;17.30
4651;DHT22;2338;49.602;8.722;2022-08-21T13:52:48;29.40;17.30
4651;DHT22;2338;49.602;8.722;2022-08-21T13:55:40;29.50;17.40
4651;DHT22;2338;49.602;8.722;2022-08-21T13:58:28;29.60;17.60
4651;DHT22;2338;49.602;8.722;2022-08-21T14:01:22;30.00;16.70
4651;DHT22;2338;49.602;8.722;2022-08-21T14:04:22;30.20;16.20
4651;DHT22;2338;49.602;8.722;2022-08-21T14:07:16;30.50;16.00
4651;DHT22;2338;49.602;8.722;2022-08-21T14:10:04;30.70;15.40
4651;DHT22;2338;49.602;8.722;2022-08-21T14:12:52;30.50;15.50
4651;DHT22;2338;49.602;8.722;2022-08-21T14:15:38;30.60;15.40
4651;DHT22;2338;49.602;8.722;2022-08-21T14:18:25;30.50;16.50
4651;DHT22;2338;49.602;8.722;2022-08-21T14:21:11;30.10;15.90
4651;DHT22;2338;49.602;8.722;2022-08-21T14:24:07;30.10;16.20
4651;DHT22;2338;49.602;8.722;2022-08-21T14:26:55;30.20;16.10
4651;DHT22;2338;49.602;8.722;2022-08-21T14:29:42;30.30;15.70
4651;DHT22;2338;49.602;8.722;2022-08-21T14:32:29;30.30;16.40
4651;DHT22;2338;49.602;8.722;2022-08-21T14:35:18;30.50;16.00
4651;DHT22;2338;49.602;8.722;2022-08-21T14:38:12;30.20;15.10
4651;DHT22;2338;49.602;8.722;2022-08-21T14:41:03;30.10;14.90
4651;DHT22;2338;49.602;8.722;2022-08-21T14:43:49;30.20;15.40
4651;DHT22;2338;49.602;8.722;2022-08-21T14:46:36;30.20;14.80
4651;DHT22;2338;49.602;8.722;2022-08-21T14:49:24;30.40;15.90
4651;DHT22;2338;49.602;8.722;2022-08-21T14:52:13;30.60;15.80
4651;DHT22;2338;49.602;8.722;2022-08-21T14:54:58;30.50;16.10
4651;DHT22;2338;49.602;8.722;2022-08-21T14:57:46;30.50;16.40
4651;DHT22;2338;49.602;8.722;2022-08-21T15:00:32;30.60;15.10
4651;DHT22;2338;49.602;8.722;2022-08-21T15:03:18;30.60;15.90
4651;DHT22;2338;49.602;8.722;2022-08-21T15:06:06;30.50;15.50
4651;DHT22;2338;49.602;8.722;2022-08-21T15:08:54;30.60;15.70
4651;DHT22;2338;49.602;8.722;2022-08-21T15:11:39;30.60;16.20
4651;DHT22;2338;49.602;8.722;2022-08-21T15:14:30;30.60;16.60
4651;DHT22;2338;49.602;8.722;2022-08-21T15:17:16;30.60;16.20
4651;DHT22;2338;49.602;8.722;2022-08-21T15:20:02;30.60;16.50
4651;DHT22;2338;49.602;8.722;2022-08-21T15:22:48;30.60;16.50
4651;DHT22;2338;49.602;8.722;2022-08-21T15:25:36;30.60;16.60
4651;DHT22;2338;49.602;8.722;2022-08-21T15:28:25;30.10;16.10
4651;DHT22;2338;49.602;8.722;2022-08-21T15:31:11;29.80;16.70
4651;DHT22;2338;49.602;8.722;2022-08-21T15:33:56;29.80;17.00
4651;DHT22;2338;49.602;8.722;2022-08-21T15:36:42;30.00;16.90
4651;DHT22;2338;49.602;8.722;2022-08-21T15:39:27;30.10;16.90
4651;DHT22;2338;49.602;8.722;2022-08-21T15:42:15;30.20;16.80
4651;DHT22;2338;49.602;8.722;2022-08-21T15:45:03;30.30;16.00
4651;DHT22;2338;49.602;8.722;2022-08-21T15:47:49;30.30;17.10
4651;DHT22;2338;49.602;8.722;2022-08-21T15:50:35;30.30;17.00
4651;DHT22;2338;49.602;8.722;2022-08-21T15:53:21;30.00;16.20
4651;DHT22;2338;49.602;8.722;2022-08-21T15:56:11;29.50;16.60
4651;DHT22;2338;49.602;8.722;2022-08-21T15:59:01;29.20;17.40
4651;DHT22;2338;49.602;8.722;2022-08-21T16:01:47;28.90;17.70
4651;DHT22;2338;49.602;8.722;2022-08-21T16:04:34;28.80;17.50
4651;DHT22;2338;49.602;8.722;2022-08-21T16:07:19;28.70;18.30
4651;DHT22;2338;49.602;8.722;2022-08-21T16:10:06;28.80;18.30
4651;DHT22;2338;49.602;8.722;2022-08-21T16:12:55;28.60;18.20
4651;DHT22;2338;49.602;8.722;2022-08-21T16:15:44;28.60;19.20
4651;DHT22;2338;49.602;8.722;2022-08-21T16:18:30;28.60;19.10
4651;DHT22;2338;49.602;8.722;2022-08-21T16:21:16;28.80;19.50
4651;DHT22;2338;49.602;8.722;2022-08-21T16:24:02;28.90;19.10
4651;DHT22;2338;49.602;8.722;2022-08-21T16:26:49;28.90;19.20
4651;DHT22;2338;49.602;8.722;2022-08-21T16:29:36;29.00;19.40
4651;DHT22;2338;49.602;8.722;2022-08-21T16:32:23;29.10;18.60
4651;DHT22;2338;49.602;8.722;2022-08-21T16:35:11;29.10;19.80
4651;DHT22;2338;49.602;8.722;2022-08-21T16:37:57;29.20;20.10
4651;DHT22;2338;49.602;8.722;2022-08-21T16:40:43;29.20;19.80
4651;DHT22;2338;49.602;8.722;2022-08-21T16:43:30;29.20;19.50
4651;DHT22;2338;49.602;8.722;2022-08-21T16:46:16;29.10;18.30
4651;DHT22;2338;49.602;8.722;2022-08-21T16:49:03;29.00;18.70
4651;DHT22;2338;49.602;8.722;2022-08-21T16:51:48;28.80;18.10
4651;DHT22;2338;49.602;8.722;2022-08-21T16:54:34;28.50;18.60
4651;DHT22;2338;49.602;8.722;2022-08-21T16:57:20;28.40;19.20
4651;DHT22;2338;49.602;8.722;2022-08-21T17:00:08;28.20;21.10
4651;DHT22;2338;49.602;8.722;2022-08-21T17:02:55;28.10;22.50
4651;DHT22;2338;49.602;8.722;2022-08-21T17:05:43;27.70;23.00
4651;DHT22;2338;49.602;8.722;2022-08-21T17:08:29;27.40;23.80
4651;DHT22;2338;49.602;8.722;2022-08-21T17:11:19;27.30;24.60
4651;DHT22;2338;49.602;8.722;2022-08-21T17:14:07;26.90;25.40
4651;DHT22;2338;49.602;8.722;2022-08-21T17:16:54;26.50;25.70
4651;DHT22;2338;49.602;8.722;2022-08-21T17:19:40;26.20;27.80
4651;DHT22;2338;49.602;8.722;2022-08-21T17:22:28;25.90;27.60
4651;DHT22;2338;49.602;8.722;2022-08-21T17:25:14;25.60;27.50
4651;DHT22;2338;49.602;8.722;2022-08-21T17:28:00;25.30;28.10
4651;DHT22;2338;49.602;8.722;2022-08-21T17:30:47;25.10;28.40
4651;DHT22;2338;49.602;8.722;2022-08-21T17:33:35;24.90;29.30
4651;DHT22;2338;49.602;8.722;2022-08-21T17:36:24;24.80;30.30
4651;DHT22;2338;49.602;8.722;2022-08-21T17:39:11;24.60;29.40
4651;DHT22;2338;49.602;8.722;2022-08-21T17:42:02;24.60;30.10
4651;DHT22;2338;49.602;8.722;2022-08-21T17:44:48;24.40;31.00
4651;DHT22;2338;49.602;8.722;2022-08-21T17:47:34;24.10;31.10
4651;DHT22;2338;49.602;8.722;2022-08-21T17:50:20;23.90;32.50
4651;DHT22;2338;49.602;8.722;2022-08-21T17:53:06;23.90;33.20
4651;DHT22;2338;49.602;8.722;2022-08-21T17:55:55;23.80;33.50
4651;DHT22;2338;49.602;8.722;2022-08-21T17:58:47;23.80;33.60
4651;DHT22;2338;49.602;8.722;2022-08-21T18:01:40;23.60;31.90
4651;DHT22;2338;49.602;8.722;2022-08-21T18:04:27;23.50;34.30
4651;DHT22;2338;49.602;8.722;2022-08-21T18:07:13;23.40;34.60
4651;DHT22;2338;49.602;8.722;2022-08-21T18:09:59;23.30;34.20
4651;DHT22;2338;49.602;8.722;2022-08-21T18:12:46;23.10;35.50
4651;DHT22;2338;49.602;8.722;2022-08-21T18:15:32;23.00;36.40
4651;DHT22;2338;49.602;8.722;2022-08-21T18:18:19;22.90;36.40
4651;DHT22;2338;49.602;8.722;2022-08-21T18:21:06;23.00;35.80